• Join FlightAware (Why Join?)
  • Login
  • US Flag 
11:00PM EDT


 

Airport Tracker/Info


-or-


 

Live Flight TrackerFlight Track Log ✈ CTA400 ✈ 10-Jun-2013 ✈ KAMA - KLBB

Flight Track Log - Related Links

Times and Time Zones

All times are in EDT time to prevent confusion due to time zone crossing. See the CTA400 flight status page for this flight to view local times or setup timezone preferences in your user account.

Time Position Orientation Groundspeed Altitude Reporting Facility
EDT Latitude Longitude Course Direction KTS MPH feet Rate Location/Type
06:16PM 35.1950 -101.7383 189° South 90 104 4,900  Level Albuquerque Center
06:17PM 35.1622 -101.7450 189° South 98 113 6,000 1,020 Climbing Albuquerque Center
06:18PM 35.1325 -101.7517 190° South 103 119 7,100 1,020 Climbing Albuquerque Center
06:19PM 35.1022 -101.7556 186° South 108 124 8,200 1,020 Climbing Albuquerque Center
06:20PM 35.0694 -101.7603 187° South 113 130 9,200 660 Climbing Albuquerque Center
06:21PM 35.0347 -101.7600 180° South 122 140 9,600 240 Climbing Albuquerque Center
06:22PM 34.9908 -101.7600 180° South 148 170 9,700  Climbing Albuquerque Center
06:23PM 34.9422 -101.7608 181° South 169 194 9,600 -60 Descending Albuquerque Center
06:24PM 34.8925 -101.7686 187° South 176 203 9,600  Level Albuquerque Center
06:25PM 34.8339 -101.7708 182° South 177 204 9,700 60 Climbing Albuquerque Center
06:26PM 34.7839 -101.7708 180° South 178 205 9,800 -60 Climbing Albuquerque Center
06:27PM 34.7325 -101.7706 180° South 182 209 9,600 -120 Descending Albuquerque Center
06:28PM 34.6817 -101.7703 180° South 183 211 9,600 -60 Level Albuquerque Center
06:29PM 34.6325 -101.7750 185° South 181 208 9,500 -60 Descending Albuquerque Center
06:30PM 34.5842 -101.7772 182° South 178 205 9,500  Level Albuquerque Center
06:31PM 34.5350 -101.7769 180° South 176 203 9,600  Climbing Albuquerque Center
06:32PM 34.4872 -101.7750 178° South 175 201 9,600  Level Albuquerque Center
06:33PM 34.4256 -101.7786 183° South 179 206 9,700  Climbing Albuquerque Center
06:34PM 34.3750 -101.7797 181° South 182 209 9,600  Descending Albuquerque Center
06:34PM 34.3597 -101.7831 190° South 181 208 9,700  Climbing Fort Worth Center
06:35PM 34.3283 -101.7892 189° South 179 206 9,600 -120 Descending Fort Worth Center
06:35PM 34.3056 -101.7881 178° South 176 203 9,600  Level Fort Worth Center
06:36PM 34.2822 -101.7917 187° South 177 204 9,600 -240 Level Fort Worth Center
06:36PM 34.2614 -101.7958 189° South 176 203 9,400 -120 Descending Fort Worth Center
06:37PM 34.2319 -101.8017 189° South 178 205 9,500  Climbing Fort Worth Center
06:37PM 34.2067 -101.8081 192° South 184 212 9,400 -120 Descending Fort Worth Center
06:38PM 34.1814 -101.8117 187° South 180 207 9,400 -240 Level Fort Worth Center
06:38PM 34.1625 -101.8158 190° South 184 212 9,200 -240 Descending Fort Worth Center
06:39PM 34.1289 -101.8217 188° South 180 207 9,200 -240 Level Fort Worth Center
06:39PM 34.1103 -101.8233 184° South 184 212 9,000 -540 Descending Fort Worth Center
06:40PM 34.0808 -101.8292 189° South 176 203 8,700 -540 Descending Fort Worth Center
06:40PM 34.0661 -101.8311 186° South 184 212 8,500 -540 Descending Fort Worth Center
06:41PM 34.0306 -101.8342 184° South 180 207 8,200 -420 Descending Fort Worth Center
06:41PM 34.0097 -101.8306 172° South 184 212 8,100 -300 Descending Fort Worth Center
06:42PM 33.9806 -101.8292 178° South 177 204 7,900 -300 Descending Fort Worth Center
06:42PM 33.9681 -101.8311 187° South 177 204 7,800 -420 Descending Fort Worth Center
06:43PM 33.9325 -101.8317 181° South 172 198 7,500 -540 Descending Fort Worth Center
06:43PM 33.9136 -101.8333 184° South 177 204 7,300 -540 Descending Fort Worth Center
06:44PM 33.8844 -101.8317 177° South 169 194 7,000 -540 Descending Fort Worth Center
06:44PM 33.8742 -101.8289 167° South 177 204 6,800 -720 Descending Fort Worth Center
06:45PM 33.8386 -101.8319 184° South 164 189 6,300 -720 Descending Fort Worth Center
06:45PM 33.8219 -101.8311 178° South 177 204 6,100 -720 Descending Fort Worth Center
06:46PM 33.7947 -101.8322 182° South 161 185 5,600 -720 Descending Fort Worth Center
06:46PM 33.7844 -101.8292 166° South 171 197 5,400 -840 Descending Fort Worth Center
06:47PM 33.7550 -101.8328 186° South 138 159 4,800 -720 Descending Fort Worth Center
06:48PM 33.7175 -101.8308 178° South 127 146 4,200 -660 Descending Fort Worth Center
06:49PM 33.6842 -101.8317 181° South 117 135 3,500 -720 Descending Fort Worth Center
06:51PM 33.6637 -101.8206 187° South  Level Estimated
06:58PM 33.6637 -101.8206 187° South  Level Estimated